EGAA - Belfast / Aldergrove Airport
Distance from station: E 5mi, 14km
Updated: 06/20/2018 8:20am
Partly Cloudy
Partly Cloudy
 Wind from WNW
Wind: WNW 14 mph , 22 km/h
Temperature: 57°F , 14°C
Dew Point: 45°F , 7°C
Humidity: 63%
Barometer: 30.15 inHg , 1021 hPa
Clouds: Partly Cloudy
Visibility: 6 miles , 10 km
Cloud details: Partly Cloudy 3600 ft
2018/06/20 15:20 EGAA 201520Z 30012KT 9999 SCT036 14/07 Q1021